createdAt,value
2022-10-12T00:01:12.827Z,94.49
2022-10-12T00:03:40.845Z,94.78
2022-10-12T00:06:11.251Z,94.71
2022-10-12T00:08:41.417Z,94.73
2022-10-12T00:11:13.007Z,94.72
2022-10-12T00:13:42.862Z,94.63
2022-10-12T00:16:12.681Z,94.61
2022-10-12T00:18:41.906Z,94.62
2022-10-12T00:21:14.846Z,94.74
2022-10-12T00:23:46.919Z,94.74
2022-10-12T00:26:19.853Z,94.61
2022-10-12T00:28:50.428Z,94.68
2022-10-12T00:31:20.921Z,94.85
2022-10-12T00:33:49.788Z,94.99
2022-10-12T00:36:19.839Z,95.03
2022-10-12T00:38:50.114Z,94.99
2022-10-12T00:41:23.380Z,94.95
2022-10-12T00:43:57.888Z,95.02
2022-10-12T00:46:30.600Z,94.90
2022-10-12T00:48:59.874Z,95.01
2022-10-12T00:51:28.668Z,95.04
2022-10-12T00:54:00.299Z,94.85
2022-10-12T00:56:31.473Z,94.75
2022-10-12T00:59:02.866Z,94.78
2022-10-12T01:01:33.103Z,94.86
2022-10-12T01:04:01.768Z,95.03
2022-10-12T01:06:31.182Z,95.18
2022-10-12T01:08:59.357Z,95.23
2022-10-12T01:11:28.144Z,94.98
2022-10-12T01:13:56.647Z,95.26
2022-10-12T01:16:34.983Z,95.67
2022-10-12T01:19:09.970Z,95.81
2022-10-12T01:21:42.429Z,95.94
2022-10-12T01:24:45.766Z,95.64
2022-10-12T01:27:37.603Z,95.48
2022-10-12T01:30:17.902Z,95.51
2022-10-12T01:33:17.678Z,95.34
2022-10-12T01:35:52.844Z,95.27
2022-10-12T01:38:30.658Z,95.12
2022-10-12T01:41:14.129Z,95.08
2022-10-12T01:46:44.965Z,94.95
2022-10-12T01:49:16.383Z,95.14
2022-10-12T01:52:10.411Z,95.30
2022-10-12T01:54:49.651Z,95.36
2022-10-12T01:57:20.932Z,95.35
2022-10-12T01:59:56.429Z,95.33
2022-10-12T02:02:30.589Z,95.46
2022-10-12T02:05:02.871Z,95.54
2022-10-12T02:07:33.121Z,95.43
2022-10-12T02:10:02.476Z,95.34
2022-10-12T02:12:32.888Z,95.54
2022-10-12T02:15:04.086Z,95.73
2022-10-12T02:17:33.934Z,95.75
2022-10-12T02:20:03.056Z,95.76
2022-10-12T02:22:35.938Z,95.85
2022-10-12T02:25:07.497Z,95.82
2022-10-12T02:27:37.047Z,95.71
2022-10-12T02:30:06.598Z,95.71
2022-10-12T02:32:39.250Z,95.74
2022-10-12T02:35:10.307Z,95.80
2022-10-12T02:37:41.349Z,95.75
2022-10-12T02:40:12.514Z,95.70
2022-10-12T02:43:08.897Z,95.68
2022-10-12T02:45:34.231Z,95.67
2022-10-12T02:48:06.603Z,95.72
2022-10-12T02:50:37.911Z,95.61
2022-10-12T02:53:06.397Z,95.57
2022-10-12T02:55:38.962Z,95.61
2022-10-12T02:58:07.007Z,95.39
2022-10-12T03:00:35.590Z,95.53
2022-10-12T03:03:05.822Z,95.52
2022-10-12T03:05:34.025Z,95.59
2022-10-12T03:08:02.256Z,95.59
2022-10-12T03:10:30.551Z,95.53
2022-10-12T03:13:00.989Z,95.57
2022-10-12T03:15:29.150Z,95.57
2022-10-12T03:17:57.463Z,95.54
2022-10-12T03:20:27.078Z,95.58
2022-10-12T03:22:55.244Z,95.57
2022-10-12T03:25:23.407Z,95.76
2022-10-12T03:27:51.433Z,95.89
2022-10-12T03:30:19.907Z,95.95
2022-10-12T03:32:48.123Z,95.92
2022-10-12T03:35:16.863Z,95.94
2022-10-12T03:37:48.577Z,95.98
2022-10-12T03:40:17.124Z,95.97
2022-10-12T03:42:45.298Z,95.88
2022-10-12T03:45:14.717Z,95.80
2022-10-12T03:47:43.087Z,95.74
2022-10-12T03:50:11.329Z,95.65
2022-10-12T03:52:39.929Z,95.70
2022-10-12T03:55:10.360Z,95.70
2022-10-12T03:57:38.638Z,95.69
2022-10-12T04:00:09.018Z,95.70
2022-10-12T04:02:37.051Z,95.60
2022-10-12T04:05:09.503Z,95.56
2022-10-12T04:07:37.633Z,95.67
2022-10-12T04:10:08.649Z,95.62
2022-10-12T04:12:37.965Z,95.55
2022-10-12T04:15:07.340Z,95.46
2022-10-12T04:17:35.509Z,95.49
2022-10-12T04:20:05.670Z,95.39
2022-10-12T04:22:39.356Z,95.39
2022-10-12T04:25:08.196Z,95.64
2022-10-12T04:27:36.574Z,95.64
2022-10-12T04:30:07.212Z,95.64
2022-10-12T04:32:36.207Z,95.57
2022-10-12T04:35:04.606Z,95.67
2022-10-12T04:37:33.459Z,95.66
2022-10-12T04:40:01.771Z,95.69
2022-10-12T04:42:30.102Z,95.71
2022-10-12T04:44:58.286Z,95.69
2022-10-12T04:47:27.741Z,95.73
2022-10-12T04:49:56.000Z,95.66
2022-10-12T04:52:24.768Z,95.71
2022-10-12T04:54:52.809Z,95.67
2022-10-12T04:57:21.219Z,95.74
2022-10-12T04:59:51.634Z,95.86
2022-10-12T05:02:20.952Z,95.81
2022-10-12T05:04:50.473Z,95.75
2022-10-12T05:07:18.702Z,95.76
2022-10-12T05:09:46.770Z,95.75
2022-10-12T05:12:14.870Z,95.78
2022-10-12T05:14:44.434Z,95.73
2022-10-12T05:17:13.335Z,95.74
2022-10-12T05:19:41.374Z,95.79
2022-10-12T05:22:11.445Z,95.82
2022-10-12T05:24:39.558Z,95.87
2022-10-12T05:27:07.499Z,95.85
2022-10-12T05:29:38.502Z,95.81
2022-10-12T05:32:11.791Z,95.80
2022-10-12T05:34:39.786Z,95.82
2022-10-12T05:37:07.720Z,95.81
2022-10-12T05:39:38.502Z,95.83
2022-10-12T05:42:07.696Z,95.83
2022-10-12T05:44:37.343Z,95.84
2022-10-12T05:47:05.616Z,95.81
2022-10-12T05:49:34.749Z,95.84
2022-10-12T05:52:03.002Z,95.93
2022-10-12T05:54:31.439Z,95.97
2022-10-12T05:57:00.954Z,96.15
2022-10-12T05:59:31.695Z,96.13
2022-10-12T06:02:00.252Z,96.23
2022-10-12T06:04:32.787Z,96.31
2022-10-12T06:07:01.207Z,96.42
2022-10-12T06:09:33.378Z,96.46
2022-10-12T06:12:04.914Z,96.45
2022-10-12T06:14:33.113Z,96.44
2022-10-12T06:17:01.312Z,96.53
2022-10-12T06:19:29.742Z,96.48
2022-10-12T06:21:58.190Z,96.36
2022-10-12T06:24:26.172Z,96.20
2022-10-12T06:26:54.542Z,95.84
2022-10-12T06:29:24.919Z,95.33
2022-10-12T06:31:54.237Z,94.31
2022-10-12T06:34:23.776Z,93.56
2022-10-12T06:36:52.604Z,92.25
2022-10-12T06:39:21.779Z,91.03
2022-10-12T06:41:49.787Z,89.54
2022-10-12T06:44:17.825Z,88.25
2022-10-12T06:46:47.687Z,87.10
2022-10-12T06:49:16.276Z,85.63
2022-10-12T06:51:45.442Z,83.71
2022-10-12T06:54:16.780Z,82.39
2022-10-12T06:56:45.708Z,80.53
2022-10-12T06:59:14.074Z,79.10
2022-10-12T07:01:42.365Z,78.69
2022-10-12T07:04:11.991Z,78.35
2022-10-12T07:06:40.113Z,77.53
2022-10-12T07:09:08.647Z,75.68
2022-10-12T07:11:37.202Z,74.20
2022-10-12T07:14:05.575Z,73.00
2022-10-12T07:16:34.363Z,71.21
2022-10-12T07:19:02.409Z,70.74
2022-10-12T07:21:31.646Z,69.89
2022-10-12T07:23:59.819Z,69.22
2022-10-12T07:26:28.365Z,69.03
2022-10-12T07:28:56.793Z,68.84
2022-10-12T07:31:25.166Z,68.90
2022-10-12T07:33:53.599Z,68.07
2022-10-12T07:36:22.216Z,67.64
2022-10-12T07:38:53.225Z,67.16
2022-10-12T07:41:21.182Z,66.84
2022-10-12T07:43:49.601Z,66.69
2022-10-12T07:46:17.876Z,67.37
2022-10-12T07:48:50.426Z,66.25
2022-10-12T07:51:18.690Z,65.80
2022-10-12T07:53:46.815Z,65.31
2022-10-12T07:56:16.638Z,64.06
2022-10-12T07:58:49.997Z,63.32
2022-10-12T08:01:19.769Z,62.18
2022-10-12T08:03:47.945Z,61.85
2022-10-12T08:06:17.449Z,60.85
2022-10-12T08:08:45.433Z,60.74
2022-10-12T08:11:15.669Z,60.33
2022-10-12T08:13:47.920Z,61.72
2022-10-12T08:16:19.805Z,61.47
2022-10-12T08:18:48.528Z,60.84
2022-10-12T08:21:18.533Z,60.09
2022-10-12T08:23:47.348Z,59.79
2022-10-12T08:26:15.896Z,59.19
2022-10-12T08:28:45.397Z,58.80
2022-10-12T08:31:17.968Z,58.81
2022-10-12T08:33:46.039Z,58.20
2022-10-12T08:36:16.008Z,58.45
2022-10-12T08:38:45.562Z,58.05
2022-10-12T08:41:24.876Z,57.55
2022-10-12T08:44:09.787Z,56.96
2022-10-12T08:46:38.093Z,56.91
2022-10-12T08:49:08.664Z,56.59
2022-10-12T08:51:41.637Z,56.97
2022-10-12T08:54:14.129Z,56.71
2022-10-12T08:56:42.742Z,56.97
2022-10-12T08:59:13.732Z,56.25
2022-10-12T09:01:58.361Z,55.50
2022-10-12T09:04:39.373Z,55.44
2022-10-12T09:07:13.127Z,56.37
2022-10-12T09:09:49.132Z,56.11
2022-10-12T09:12:27.122Z,55.85
2022-10-12T09:15:01.502Z,55.79
2022-10-12T09:17:33.091Z,55.18
2022-10-12T09:20:04.845Z,55.33
2022-10-12T09:22:35.323Z,54.74
2022-10-12T09:25:04.266Z,54.26
2022-10-12T09:27:32.880Z,54.08
2022-10-12T09:30:05.095Z,53.97
2022-10-12T09:32:42.209Z,53.30
2022-10-12T09:35:13.161Z,53.20
2022-10-12T09:37:42.145Z,53.95
2022-10-12T09:40:24.864Z,53.35
2022-10-12T09:42:53.567Z,52.78
2022-10-12T09:45:28.164Z,52.46
2022-10-12T09:48:17.994Z,52.12
2022-10-12T09:50:51.838Z,51.77
2022-10-12T09:53:31.359Z,51.92
2022-10-12T09:56:04.024Z,51.84
2022-10-12T09:58:38.850Z,52.71
2022-10-12T10:01:26.030Z,52.80
2022-10-12T10:04:23.990Z,52.39
2022-10-12T10:06:52.700Z,52.89
2022-10-12T10:09:32.287Z,52.35
2022-10-12T10:12:14.046Z,52.91
2022-10-12T10:14:44.087Z,52.72
2022-10-12T10:17:17.495Z,52.73
2022-10-12T10:19:50.659Z,51.77
2022-10-12T10:22:19.357Z,51.45
2022-10-12T10:24:52.234Z,51.94
2022-10-12T10:27:33.570Z,52.03
2022-10-12T10:30:29.778Z,52.03
2022-10-12T10:33:15.026Z,50.71
2022-10-12T10:35:54.716Z,50.28
2022-10-12T10:38:22.992Z,49.99
2022-10-12T10:40:53.370Z,49.97
2022-10-12T10:43:24.842Z,49.81
2022-10-12T10:45:57.343Z,50.04
2022-10-12T10:48:29.843Z,50.92
2022-10-12T10:51:01.806Z,49.94
2022-10-12T10:53:43.356Z,49.93
2022-10-12T10:56:13.486Z,50.14
2022-10-12T10:58:47.203Z,50.85
2022-10-12T11:01:20.962Z,49.35
2022-10-12T11:03:58.285Z,48.76
2022-10-12T11:06:37.503Z,49.59
2022-10-12T11:09:08.147Z,50.40
2022-10-12T11:11:38.069Z,52.14
2022-10-12T11:14:12.336Z,52.54
2022-10-12T11:16:43.027Z,52.07
2022-10-12T11:19:23.564Z,52.42
2022-10-12T11:21:54.854Z,52.25
2022-10-12T11:24:26.314Z,50.95
2022-10-12T11:26:58.595Z,50.39
2022-10-12T11:29:28.216Z,51.89
2022-10-12T11:31:59.954Z,51.89
2022-10-12T11:34:29.895Z,50.85
2022-10-12T11:37:18.781Z,51.13
2022-10-12T11:39:51.169Z,49.45
2022-10-12T11:42:26.550Z,50.95
2022-10-12T11:44:56.239Z,51.73
2022-10-12T11:47:33.219Z,49.06
2022-10-12T11:50:04.696Z,49.08
2022-10-12T11:52:40.153Z,49.21
2022-10-12T11:55:25.347Z,49.92
2022-10-12T11:57:56.354Z,50.79
2022-10-12T12:00:27.735Z,51.24
2022-10-12T12:03:10.908Z,51.92
2022-10-12T12:05:40.583Z,52.29
2022-10-12T12:08:22.177Z,52.28
2022-10-12T12:11:07.895Z,52.72
2022-10-12T12:13:36.154Z,52.56
2022-10-12T12:16:32.680Z,52.84
2022-10-12T12:19:38.198Z,53.57
2022-10-12T12:22:23.611Z,53.79
2022-10-12T12:24:54.100Z,53.94
2022-10-12T12:27:25.480Z,54.65
2022-10-12T12:29:55.790Z,54.82
2022-10-12T12:32:24.709Z,54.98
2022-10-12T12:35:00.251Z,54.24
2022-10-12T12:37:33.264Z,53.70
2022-10-12T12:40:16.380Z,54.32
2022-10-12T12:42:44.650Z,53.44
2022-10-12T12:45:42.810Z,53.87
2022-10-12T12:48:11.351Z,53.25
2022-10-12T12:50:44.100Z,54.45
2022-10-12T12:53:19.155Z,54.81
2022-10-12T12:56:01.329Z,54.81
2022-10-12T12:58:39.935Z,54.97
2022-10-12T13:01:26.328Z,54.94
2022-10-12T13:04:19.261Z,54.87
2022-10-12T13:07:13.989Z,54.62
2022-10-12T13:10:12.069Z,54.93
2022-10-12T13:12:56.741Z,55.43
2022-10-12T13:15:31.760Z,55.51
2022-10-12T13:18:45.677Z,55.47
2022-10-12T13:21:18.385Z,55.65
2022-10-12T13:23:49.271Z,55.75
2022-10-12T13:26:23.132Z,55.91
2022-10-12T13:28:53.812Z,56.38
2022-10-12T13:31:27.504Z,56.64
2022-10-12T13:34:02.439Z,56.10
2022-10-12T13:36:32.866Z,55.73
2022-10-12T13:39:09.464Z,56.31
2022-10-12T13:41:41.164Z,56.18
2022-10-12T13:44:21.732Z,55.79
2022-10-12T13:46:52.528Z,55.99
2022-10-12T13:49:24.878Z,56.13
2022-10-12T13:51:55.455Z,55.81
2022-10-12T13:54:28.889Z,56.01
2022-10-12T13:57:00.601Z,55.96
2022-10-12T13:59:35.260Z,56.02
2022-10-12T14:02:05.200Z,56.04
2022-10-12T14:04:35.340Z,55.85
2022-10-12T14:07:07.914Z,55.75
2022-10-12T14:09:41.737Z,55.94
2022-10-12T14:12:13.333Z,56.00
2022-10-12T14:14:48.051Z,55.70
2022-10-12T14:17:16.981Z,55.56
2022-10-12T14:19:46.824Z,55.85
2022-10-12T14:22:20.735Z,55.69
2022-10-12T14:24:49.375Z,55.81
2022-10-12T14:27:24.734Z,55.65
2022-10-12T14:30:02.509Z,55.69
2022-10-12T14:32:42.715Z,56.17
2022-10-12T14:35:14.830Z,56.09
2022-10-12T14:37:43.562Z,56.47
2022-10-12T14:40:27.327Z,56.51
2022-10-12T14:42:59.303Z,56.83
2022-10-12T14:45:28.690Z,56.58
2022-10-12T14:47:57.380Z,56.83
2022-10-12T14:50:25.541Z,56.97
2022-10-12T14:52:55.093Z,57.07
2022-10-12T14:55:25.671Z,56.89
2022-10-12T14:57:53.813Z,57.40
2022-10-12T15:00:24.205Z,57.09
2022-10-12T15:02:53.953Z,57.25
2022-10-12T15:05:23.804Z,57.25
2022-10-12T15:07:52.609Z,57.05
2022-10-12T15:10:23.005Z,57.16
2022-10-12T15:12:52.017Z,57.43
2022-10-12T15:15:32.029Z,57.57
2022-10-12T15:18:02.950Z,57.54
2022-10-12T15:20:32.240Z,57.41
2022-10-12T15:23:00.489Z,57.35
2022-10-12T15:25:37.970Z,57.81
2022-10-12T15:28:06.593Z,57.74
2022-10-12T15:30:36.085Z,57.94
2022-10-12T15:33:13.037Z,58.24
2022-10-12T15:35:42.264Z,57.91
2022-10-12T15:38:10.899Z,58.21
2022-10-12T15:40:40.579Z,58.27
2022-10-12T15:43:12.290Z,58.72
2022-10-12T15:45:41.555Z,58.79
2022-10-12T15:48:13.236Z,58.87
2022-10-12T15:50:43.119Z,58.98
2022-10-12T15:53:17.630Z,59.45
2022-10-12T15:55:45.899Z,59.53
2022-10-12T15:58:14.434Z,59.76
2022-10-12T16:00:43.332Z,59.95
2022-10-12T16:03:15.572Z,60.07
2022-10-12T16:05:44.023Z,60.07
2022-10-12T16:08:13.227Z,60.40
2022-10-12T16:10:42.384Z,60.70
2022-10-12T16:13:13.139Z,61.21
2022-10-12T16:15:45.018Z,61.73
2022-10-12T16:18:16.463Z,62.34
2022-10-12T16:20:49.786Z,62.87
2022-10-12T16:23:26.158Z,63.33
2022-10-12T16:25:57.932Z,64.07
2022-10-12T16:28:27.510Z,64.46
2022-10-12T16:30:55.569Z,65.04
2022-10-12T16:33:25.071Z,65.30
2022-10-12T16:35:55.574Z,65.64
2022-10-12T16:38:23.899Z,65.84
2022-10-12T16:40:52.246Z,66.43
2022-10-12T16:43:23.288Z,66.83
2022-10-12T16:45:56.745Z,67.31
2022-10-12T16:48:26.563Z,67.59
2022-10-12T16:50:54.552Z,67.77
2022-10-12T16:53:23.832Z,68.11
2022-10-12T16:55:52.620Z,68.51
2022-10-12T16:58:21.000Z,68.90
2022-10-12T17:00:49.083Z,69.23
2022-10-12T17:03:17.588Z,69.68
2022-10-12T17:05:48.805Z,69.93
2022-10-12T17:08:17.018Z,70.36
2022-10-12T17:10:46.750Z,70.65
2022-10-12T17:13:14.793Z,71.07
2022-10-12T17:15:44.686Z,71.32
2022-10-12T17:18:15.463Z,71.41
2022-10-12T17:20:44.089Z,71.38
2022-10-12T17:23:13.499Z,71.77
2022-10-12T17:25:43.933Z,72.34
2022-10-12T17:28:12.071Z,72.72
2022-10-12T17:30:40.387Z,73.18
2022-10-12T17:33:09.117Z,73.51
2022-10-12T17:35:40.921Z,73.84
2022-10-12T17:38:11.227Z,74.20
2022-10-12T17:40:40.991Z,74.62
2022-10-12T17:43:09.084Z,75.02
2022-10-12T17:45:40.331Z,75.43
2022-10-12T17:48:09.059Z,75.67
2022-10-12T17:50:37.059Z,75.99
2022-10-12T17:53:05.109Z,76.21
2022-10-12T17:55:48.024Z,76.59
2022-10-12T17:58:18.251Z,76.95
2022-10-12T18:00:46.492Z,77.23
2022-10-12T18:03:14.663Z,77.52
2022-10-12T18:05:43.195Z,77.76
2022-10-12T18:08:11.450Z,77.94
2022-10-12T18:10:40.746Z,78.14
2022-10-12T18:13:09.150Z,78.41
2022-10-12T18:15:44.382Z,78.64
2022-10-12T18:18:15.253Z,78.82
2022-10-12T18:20:47.014Z,79.11
2022-10-12T18:23:15.166Z,79.28
2022-10-12T18:25:44.243Z,79.75
2022-10-12T18:28:13.823Z,80.05
2022-10-12T18:30:49.088Z,80.23
2022-10-12T18:33:17.874Z,80.64
2022-10-12T18:35:45.866Z,80.98
2022-10-12T18:38:13.894Z,81.14
2022-10-12T18:40:42.558Z,81.25
2022-10-12T18:43:11.210Z,81.36
2022-10-12T18:45:42.428Z,81.42
2022-10-12T18:48:12.044Z,81.64
2022-10-12T18:50:42.945Z,81.84
2022-10-12T18:53:11.364Z,82.09
2022-10-12T18:55:39.446Z,82.33
2022-10-12T18:58:07.853Z,82.64
2022-10-12T19:00:35.915Z,82.86
2022-10-12T19:03:04.037Z,82.78
2022-10-12T19:05:33.863Z,83.10
2022-10-12T19:08:02.259Z,83.74
2022-10-12T19:10:30.339Z,84.16
2022-10-12T19:12:59.955Z,84.51
2022-10-12T19:15:28.639Z,84.75
2022-10-12T19:17:56.895Z,84.86
2022-10-12T19:20:25.096Z,84.84
2022-10-12T19:23:02.117Z,84.86
2022-10-12T19:25:31.371Z,84.79
2022-10-12T19:27:59.643Z,84.69
2022-10-12T19:30:29.278Z,84.83
2022-10-12T19:32:57.519Z,84.85
2022-10-12T19:35:28.687Z,84.90
2022-10-12T19:37:58.270Z,84.99
2022-10-12T19:40:27.626Z,84.90
2022-10-12T19:42:55.849Z,85.08
2022-10-12T19:45:24.356Z,85.10
2022-10-12T19:47:52.606Z,85.19
2022-10-12T19:50:20.884Z,85.33
2022-10-12T19:52:49.129Z,85.39
2022-10-12T19:55:19.627Z,85.28
2022-10-12T19:57:49.048Z,85.29
2022-10-12T20:00:18.080Z,85.51
2022-10-12T20:02:48.815Z,85.78
2022-10-12T20:05:18.224Z,85.93
2022-10-12T20:07:46.902Z,85.78
2022-10-12T20:10:15.448Z,85.75
2022-10-12T20:15:37.641Z,85.75
2022-10-12T20:18:05.925Z,85.71
2022-10-12T20:20:34.045Z,85.71
2022-10-12T20:23:02.298Z,85.69
2022-10-12T20:25:30.539Z,85.68
2022-10-12T20:28:03.025Z,85.65
2022-10-12T20:30:31.505Z,85.53
2022-10-12T20:33:00.883Z,85.55
2022-10-12T20:35:30.285Z,85.56
2022-10-12T20:37:58.658Z,85.67
2022-10-12T20:40:26.833Z,85.82
2022-10-12T20:42:59.157Z,85.98
2022-10-12T20:45:28.836Z,86.22
2022-10-12T20:47:58.143Z,86.36
2022-10-12T20:50:27.144Z,86.46
2022-10-12T20:52:55.345Z,86.51
2022-10-12T20:55:23.948Z,86.51
2022-10-12T20:57:52.750Z,86.48
2022-10-12T21:00:20.891Z,86.60
2022-10-12T21:02:50.268Z,86.65
2022-10-12T21:05:18.635Z,86.72
2022-10-12T21:07:47.088Z,86.85
2022-10-12T21:10:15.411Z,86.84
2022-10-12T21:12:44.166Z,86.78
2022-10-12T21:15:12.328Z,86.88
2022-10-12T21:17:40.640Z,86.98
2022-10-12T21:20:11.077Z,86.97
2022-10-12T21:22:40.687Z,86.83
2022-10-12T21:25:09.565Z,86.77
2022-10-12T21:27:37.741Z,86.73
2022-10-12T21:30:06.524Z,86.81
2022-10-12T21:32:34.825Z,86.93
2022-10-12T21:35:03.095Z,86.81
2022-10-12T21:37:36.982Z,86.69
2022-10-12T21:40:11.066Z,86.65
2022-10-12T21:42:39.190Z,86.54
2022-10-12T21:45:09.090Z,86.61
2022-10-12T21:47:37.493Z,86.84
2022-10-12T21:50:09.255Z,87.17
2022-10-12T21:52:39.600Z,87.19
2022-10-12T21:55:08.048Z,87.31
2022-10-12T21:57:36.227Z,87.32
2022-10-12T22:00:05.850Z,87.35
2022-10-12T22:02:33.858Z,87.39
2022-10-12T22:05:01.929Z,87.34
2022-10-12T22:07:29.989Z,87.50
2022-10-12T22:09:59.354Z,87.58
2022-10-12T22:12:30.062Z,87.72
2022-10-12T22:14:58.356Z,87.76
2022-10-12T22:17:26.594Z,87.89
2022-10-12T22:19:54.845Z,87.94
2022-10-12T22:22:23.313Z,88.20
2022-10-12T22:24:51.346Z,88.27
2022-10-12T22:27:21.108Z,88.48
2022-10-12T22:29:49.129Z,88.52
2022-10-12T22:32:17.737Z,88.53
2022-10-12T22:34:46.046Z,88.80
2022-10-12T22:37:14.044Z,88.86
2022-10-12T22:39:42.374Z,88.97
2022-10-12T22:42:10.775Z,88.92
2022-10-12T22:44:40.286Z,88.99
2022-10-12T22:47:08.329Z,89.14
2022-10-12T22:49:36.816Z,89.16
2022-10-12T22:52:05.373Z,89.25
2022-10-12T22:54:33.918Z,89.25
2022-10-12T22:57:02.215Z,89.30
2022-10-12T22:59:31.986Z,89.44
2022-10-12T23:02:01.683Z,89.55
2022-10-12T23:04:29.754Z,89.53
2022-10-12T23:06:57.788Z,89.62
2022-10-12T23:09:25.765Z,89.59
2022-10-12T23:11:53.832Z,89.61
2022-10-12T23:14:21.940Z,89.67
2022-10-12T23:16:50.123Z,89.70
2022-10-12T23:19:19.489Z,89.70
2022-10-12T23:21:48.271Z,89.76
2022-10-12T23:24:16.276Z,89.73
2022-10-12T23:26:44.682Z,89.66
2022-10-12T23:29:13.112Z,89.63
2022-10-12T23:31:41.342Z,89.67
2022-10-12T23:34:11.814Z,89.71
2022-10-12T23:36:41.416Z,89.65
2022-10-12T23:39:09.862Z,89.72
2022-10-12T23:41:38.040Z,89.66
2022-10-12T23:44:07.099Z,89.63
2022-10-12T23:46:35.352Z,89.65
2022-10-12T23:49:03.626Z,89.71
2022-10-12T23:51:31.699Z,89.74
2022-10-12T23:54:03.417Z,89.80
2022-10-12T23:56:31.829Z,89.91
2022-10-12T23:59:00.682Z,90.02
